sensor_id;sensor_type;location;lat;lon;timestamp;temperature;humidity
34927;DHT22;21132;48.308;14.274;2022-08-14T00:00:01;23.20;49.60
34927;DHT22;21132;48.308;14.274;2022-08-14T00:02:27;23.30;49.60
34927;DHT22;21132;48.308;14.274;2022-08-14T00:04:53;23.30;50.40
34927;DHT22;21132;48.308;14.274;2022-08-14T00:07:19;23.30;51.40
34927;DHT22;21132;48.308;14.274;2022-08-14T00:09:45;23.30;50.90
34927;DHT22;21132;48.308;14.274;2022-08-14T00:12:11;23.40;50.60
34927;DHT22;21132;48.308;14.274;2022-08-14T00:14:38;23.40;50.70
34927;DHT22;21132;48.308;14.274;2022-08-14T00:17:04;23.40;51.30
34927;DHT22;21132;48.308;14.274;2022-08-14T00:19:30;23.40;51.00
34927;DHT22;21132;48.308;14.274;2022-08-14T00:21:56;23.40;50.70
34927;DHT22;21132;48.308;14.274;2022-08-14T00:24:23;23.40;50.50
34927;DHT22;21132;48.308;14.274;2022-08-14T00:26:49;23.40;50.60
34927;DHT22;21132;48.308;14.274;2022-08-14T00:29:15;23.30;50.60
34927;DHT22;21132;48.308;14.274;2022-08-14T00:31:41;23.30;50.40
34927;DHT22;21132;48.308;14.274;2022-08-14T00:34:06;23.20;50.40
34927;DHT22;21132;48.308;14.274;2022-08-14T00:36:32;23.20;50.70
34927;DHT22;21132;48.308;14.274;2022-08-14T00:38:58;23.10;50.80
34927;DHT22;21132;48.308;14.274;2022-08-14T00:41:30;23.10;50.80
34927;DHT22;21132;48.308;14.274;2022-08-14T00:43:56;23.00;51.10
34927;DHT22;21132;48.308;14.274;2022-08-14T00:46:22;23.00;51.10
34927;DHT22;21132;48.308;14.274;2022-08-14T00:48:48;22.90;51.80
34927;DHT22;21132;48.308;14.274;2022-08-14T00:51:14;22.90;51.90
34927;DHT22;21132;48.308;14.274;2022-08-14T00:53:40;22.80;51.90
34927;DHT22;21132;48.308;14.274;2022-08-14T00:56:07;22.80;51.90
34927;DHT22;21132;48.308;14.274;2022-08-14T00:58:34;22.70;52.10
34927;DHT22;21132;48.308;14.274;2022-08-14T01:01:10;22.70;52.20
34927;DHT22;21132;48.308;14.274;2022-08-14T01:03:38;22.60;52.20
34927;DHT22;21132;48.308;14.274;2022-08-14T01:06:08;22.60;52.20
34927;DHT22;21132;48.308;14.274;2022-08-14T01:08:37;22.50;52.20
34927;DHT22;21132;48.308;14.274;2022-08-14T01:11:04;22.50;52.30
34927;DHT22;21132;48.308;14.274;2022-08-14T01:13:34;22.50;52.70
34927;DHT22;21132;48.308;14.274;2022-08-14T01:16:04;22.40;53.00
34927;DHT22;21132;48.308;14.274;2022-08-14T01:18:31;22.50;52.80
34927;DHT22;21132;48.308;14.274;2022-08-14T01:21:36;22.40;53.20
34927;DHT22;21132;48.308;14.274;2022-08-14T01:24:04;22.40;52.20
34927;DHT22;21132;48.308;14.274;2022-08-14T01:26:33;22.40;53.20
34927;DHT22;21132;48.308;14.274;2022-08-14T01:29:00;22.40;53.60
34927;DHT22;21132;48.308;14.274;2022-08-14T01:31:29;22.40;53.40
34927;DHT22;21132;48.308;14.274;2022-08-14T01:33:58;22.40;53.40
34927;DHT22;21132;48.308;14.274;2022-08-14T01:36:25;22.40;53.50
34927;DHT22;21132;48.308;14.274;2022-08-14T01:38:53;22.40;53.80
34927;DHT22;21132;48.308;14.274;2022-08-14T01:41:23;22.40;53.70
34927;DHT22;21132;48.308;14.274;2022-08-14T01:43:55;22.30;53.40
34927;DHT22;21132;48.308;14.274;2022-08-14T01:46:33;22.30;53.50
34927;DHT22;21132;48.308;14.274;2022-08-14T01:49:00;22.30;53.60
34927;DHT22;21132;48.308;14.274;2022-08-14T01:51:28;22.20;53.70
34927;DHT22;21132;48.308;14.274;2022-08-14T01:54:00;22.20;54.20
34927;DHT22;21132;48.308;14.274;2022-08-14T01:56:30;22.20;54.20
34927;DHT22;21132;48.308;14.274;2022-08-14T01:59:05;22.10;54.10
34927;DHT22;21132;48.308;14.274;2022-08-14T02:01:31;22.10;54.10
34927;DHT22;21132;48.308;14.274;2022-08-14T02:03:58;22.10;54.10
34927;DHT22;21132;48.308;14.274;2022-08-14T02:06:28;22.10;54.40
34927;DHT22;21132;48.308;14.274;2022-08-14T02:08:55;22.00;54.60
34927;DHT22;21132;48.308;14.274;2022-08-14T02:11:21;22.00;54.60
34927;DHT22;21132;48.308;14.274;2022-08-14T02:13:57;22.00;54.70
34927;DHT22;21132;48.308;14.274;2022-08-14T02:16:30;22.10;54.90
34927;DHT22;21132;48.308;14.274;2022-08-14T02:19:13;22.10;55.00
34927;DHT22;21132;48.308;14.274;2022-08-14T02:21:41;22.10;54.80
34927;DHT22;21132;48.308;14.274;2022-08-14T02:24:08;22.20;54.80
34927;DHT22;21132;48.308;14.274;2022-08-14T02:26:36;22.20;55.30
34927;DHT22;21132;48.308;14.274;2022-08-14T02:29:10;22.20;55.20
34927;DHT22;21132;48.308;14.274;2022-08-14T02:31:46;22.30;55.40
34927;DHT22;21132;48.308;14.274;2022-08-14T02:34:21;22.30;55.20
34927;DHT22;21132;48.308;14.274;2022-08-14T02:36:49;22.30;55.00
34927;DHT22;21132;48.308;14.274;2022-08-14T02:39:16;22.40;54.90
34927;DHT22;21132;48.308;14.274;2022-08-14T02:41:42;22.40;55.00
34927;DHT22;21132;48.308;14.274;2022-08-14T02:44:10;22.40;54.90
34927;DHT22;21132;48.308;14.274;2022-08-14T02:46:37;22.40;54.90
34927;DHT22;21132;48.308;14.274;2022-08-14T02:49:04;22.50;55.00
34927;DHT22;21132;48.308;14.274;2022-08-14T02:51:31;22.50;54.80
34927;DHT22;21132;48.308;14.274;2022-08-14T02:53:57;22.50;54.90
34927;DHT22;21132;48.308;14.274;2022-08-14T02:56:26;22.50;55.00
34927;DHT22;21132;48.308;14.274;2022-08-14T02:58:54;22.50;55.20
34927;DHT22;21132;48.308;14.274;2022-08-14T03:01:23;22.50;55.10
34927;DHT22;21132;48.308;14.274;2022-08-14T03:03:50;22.60;55.00
34927;DHT22;21132;48.308;14.274;2022-08-14T03:06:17;22.60;55.10
34927;DHT22;21132;48.308;14.274;2022-08-14T03:08:45;22.70;55.40
34927;DHT22;21132;48.308;14.274;2022-08-14T03:11:13;22.70;55.40
34927;DHT22;21132;48.308;14.274;2022-08-14T03:13:46;22.70;55.60
34927;DHT22;21132;48.308;14.274;2022-08-14T03:16:14;22.70;56.10
34927;DHT22;21132;48.308;14.274;2022-08-14T03:18:44;22.70;55.70
34927;DHT22;21132;48.308;14.274;2022-08-14T03:21:15;22.70;55.30
34927;DHT22;21132;48.308;14.274;2022-08-14T03:23:43;22.70;55.20
34927;DHT22;21132;48.308;14.274;2022-08-14T03:26:12;22.70;55.30
34927;DHT22;21132;48.308;14.274;2022-08-14T03:28:42;22.70;55.40
34927;DHT22;21132;48.308;14.274;2022-08-14T03:31:09;22.70;55.50
34927;DHT22;21132;48.308;14.274;2022-08-14T03:33:36;22.60;55.30
34927;DHT22;21132;48.308;14.274;2022-08-14T03:36:09;22.60;55.20
34927;DHT22;21132;48.308;14.274;2022-08-14T03:38:44;22.60;55.40
34927;DHT22;21132;48.308;14.274;2022-08-14T03:41:16;22.60;55.50
34927;DHT22;21132;48.308;14.274;2022-08-14T03:43:43;22.60;55.60
34927;DHT22;21132;48.308;14.274;2022-08-14T03:46:10;22.60;55.80
34927;DHT22;21132;48.308;14.274;2022-08-14T03:48:38;22.60;56.10
34927;DHT22;21132;48.308;14.274;2022-08-14T03:51:05;22.60;55.90
34927;DHT22;21132;48.308;14.274;2022-08-14T03:53:36;22.60;56.00
34927;DHT22;21132;48.308;14.274;2022-08-14T03:56:06;22.50;55.70
34927;DHT22;21132;48.308;14.274;2022-08-14T03:58:32;22.60;55.70
34927;DHT22;21132;48.308;14.274;2022-08-14T04:00:59;22.60;55.70
34927;DHT22;21132;48.308;14.274;2022-08-14T04:03:25;22.60;55.80
34927;DHT22;21132;48.308;14.274;2022-08-14T04:05:52;22.60;55.70
34927;DHT22;21132;48.308;14.274;2022-08-14T04:08:19;22.60;56.00
34927;DHT22;21132;48.308;14.274;2022-08-14T04:10:45;22.70;56.30
34927;DHT22;21132;48.308;14.274;2022-08-14T04:13:12;22.60;56.20
34927;DHT22;21132;48.308;14.274;2022-08-14T04:15:40;22.70;56.30
34927;DHT22;21132;48.308;14.274;2022-08-14T04:18:07;22.70;56.10
34927;DHT22;21132;48.308;14.274;2022-08-14T04:20:36;22.70;56.20
34927;DHT22;21132;48.308;14.274;2022-08-14T04:23:02;22.70;56.20
34927;DHT22;21132;48.308;14.274;2022-08-14T04:25:32;22.80;56.40
34927;DHT22;21132;48.308;14.274;2022-08-14T04:28:05;22.80;56.30
34927;DHT22;21132;48.308;14.274;2022-08-14T04:30:32;22.80;56.10
34927;DHT22;21132;48.308;14.274;2022-08-14T04:33:06;22.90;56.00
34927;DHT22;21132;48.308;14.274;2022-08-14T04:35:34;22.90;55.90
34927;DHT22;21132;48.308;14.274;2022-08-14T04:38:05;23.00;56.10
34927;DHT22;21132;48.308;14.274;2022-08-14T04:41:02;23.00;55.80
34927;DHT22;21132;48.308;14.274;2022-08-14T04:43:47;23.00;55.60
34927;DHT22;21132;48.308;14.274;2022-08-14T04:46:15;23.10;55.70
34927;DHT22;21132;48.308;14.274;2022-08-14T04:48:40;23.10;55.70
34927;DHT22;21132;48.308;14.274;2022-08-14T04:51:18;23.10;55.60
34927;DHT22;21132;48.308;14.274;2022-08-14T04:53:46;23.10;55.60
34927;DHT22;21132;48.308;14.274;2022-08-14T04:56:18;23.20;55.50
34927;DHT22;21132;48.308;14.274;2022-08-14T04:58:48;23.20;55.60
34927;DHT22;21132;48.308;14.274;2022-08-14T05:01:14;23.30;55.70
34927;DHT22;21132;48.308;14.274;2022-08-14T05:03:41;23.30;55.70
34927;DHT22;21132;48.308;14.274;2022-08-14T05:06:08;23.30;55.70
34927;DHT22;21132;48.308;14.274;2022-08-14T05:08:35;23.30;55.60
34927;DHT22;21132;48.308;14.274;2022-08-14T05:11:03;23.40;55.50
34927;DHT22;21132;48.308;14.274;2022-08-14T05:13:30;23.40;55.50
34927;DHT22;21132;48.308;14.274;2022-08-14T05:15:57;23.40;55.40
34927;DHT22;21132;48.308;14.274;2022-08-14T05:18:28;23.50;55.40
34927;DHT22;21132;48.308;14.274;2022-08-14T05:20:58;23.50;55.30
34927;DHT22;21132;48.308;14.274;2022-08-14T05:23:26;23.60;55.20
34927;DHT22;21132;48.308;14.274;2022-08-14T05:25:54;23.60;55.10
34927;DHT22;21132;48.308;14.274;2022-08-14T05:28:25;23.70;55.10
34927;DHT22;21132;48.308;14.274;2022-08-14T05:30:54;23.70;55.10
34927;DHT22;21132;48.308;14.274;2022-08-14T05:33:21;23.80;55.00
34927;DHT22;21132;48.308;14.274;2022-08-14T05:35:50;23.80;54.90
34927;DHT22;21132;48.308;14.274;2022-08-14T05:38:18;23.90;54.80
34927;DHT22;21132;48.308;14.274;2022-08-14T05:40:45;23.90;54.60
34927;DHT22;21132;48.308;14.274;2022-08-14T05:43:11;24.00;54.60
34927;DHT22;21132;48.308;14.274;2022-08-14T05:45:37;24.10;54.60
34927;DHT22;21132;48.308;14.274;2022-08-14T05:48:04;24.10;54.30
34927;DHT22;21132;48.308;14.274;2022-08-14T05:50:31;24.20;54.20
34927;DHT22;21132;48.308;14.274;2022-08-14T05:52:58;24.20;54.10
34927;DHT22;21132;48.308;14.274;2022-08-14T05:55:24;24.30;53.90
34927;DHT22;21132;48.308;14.274;2022-08-14T05:58:03;24.40;53.70
34927;DHT22;21132;48.308;14.274;2022-08-14T06:00:34;24.50;53.40
34927;DHT22;21132;48.308;14.274;2022-08-14T06:03:01;24.60;53.20
34927;DHT22;21132;48.308;14.274;2022-08-14T06:05:27;24.60;52.90
34927;DHT22;21132;48.308;14.274;2022-08-14T06:07:53;24.70;52.60
34927;DHT22;21132;48.308;14.274;2022-08-14T06:10:19;24.70;52.40
34927;DHT22;21132;48.308;14.274;2022-08-14T06:12:46;24.70;52.00
34927;DHT22;21132;48.308;14.274;2022-08-14T06:15:11;24.70;51.90
34927;DHT22;21132;48.308;14.274;2022-08-14T06:17:48;24.70;51.60
34927;DHT22;21132;48.308;14.274;2022-08-14T06:20:15;24.80;51.50
34927;DHT22;21132;48.308;14.274;2022-08-14T06:22:42;24.80;51.30
34927;DHT22;21132;48.308;14.274;2022-08-14T06:25:10;24.80;51.10
34927;DHT22;21132;48.308;14.274;2022-08-14T06:27:41;24.80;50.90
34927;DHT22;21132;48.308;14.274;2022-08-14T06:30:13;24.90;51.00
34927;DHT22;21132;48.308;14.274;2022-08-14T06:32:40;24.90;51.00
34927;DHT22;21132;48.308;14.274;2022-08-14T06:35:07;25.00;51.00
34927;DHT22;21132;48.308;14.274;2022-08-14T06:40:05;25.20;50.60
34927;DHT22;21132;48.308;14.274;2022-08-14T06:42:32;25.30;51.20
34927;DHT22;21132;48.308;14.274;2022-08-14T06:44:58;25.40;50.50
34927;DHT22;21132;48.308;14.274;2022-08-14T06:47:26;25.50;50.20
34927;DHT22;21132;48.308;14.274;2022-08-14T06:49:52;25.60;49.90
34927;DHT22;21132;48.308;14.274;2022-08-14T06:52:17;25.70;49.80
34927;DHT22;21132;48.308;14.274;2022-08-14T06:54:44;25.80;49.70
34927;DHT22;21132;48.308;14.274;2022-08-14T06:57:10;25.90;49.40
34927;DHT22;21132;48.308;14.274;2022-08-14T06:59:36;26.00;49.00
34927;DHT22;21132;48.308;14.274;2022-08-14T07:02:02;26.10;48.90
34927;DHT22;21132;48.308;14.274;2022-08-14T07:04:46;26.20;48.30
34927;DHT22;21132;48.308;14.274;2022-08-14T07:07:36;26.20;48.60
34927;DHT22;21132;48.308;14.274;2022-08-14T07:10:03;26.30;49.60
34927;DHT22;21132;48.308;14.274;2022-08-14T07:12:29;26.50;48.60
34927;DHT22;21132;48.308;14.274;2022-08-14T07:14:55;26.60;48.50
34927;DHT22;21132;48.308;14.274;2022-08-14T07:17:21;26.70;48.20
34927;DHT22;21132;48.308;14.274;2022-08-14T07:19:46;26.80;48.10
34927;DHT22;21132;48.308;14.274;2022-08-14T07:22:12;26.90;47.90
34927;DHT22;21132;48.308;14.274;2022-08-14T07:24:38;27.00;47.20
34927;DHT22;21132;48.308;14.274;2022-08-14T07:27:04;27.10;47.20
34927;DHT22;21132;48.308;14.274;2022-08-14T07:29:30;27.20;46.70
34927;DHT22;21132;48.308;14.274;2022-08-14T07:31:56;27.20;46.80
34927;DHT22;21132;48.308;14.274;2022-08-14T07:34:22;27.30;46.40
34927;DHT22;21132;48.308;14.274;2022-08-14T07:36:48;27.30;46.60
34927;DHT22;21132;48.308;14.274;2022-08-14T07:39:13;27.30;46.40
34927;DHT22;21132;48.308;14.274;2022-08-14T07:41:39;27.40;46.30
34927;DHT22;21132;48.308;14.274;2022-08-14T07:44:05;27.40;46.00
34927;DHT22;21132;48.308;14.274;2022-08-14T07:46:31;27.40;45.70
34927;DHT22;21132;48.308;14.274;2022-08-14T07:48:57;27.40;45.80
34927;DHT22;21132;48.308;14.274;2022-08-14T07:51:23;27.40;45.90
34927;DHT22;21132;48.308;14.274;2022-08-14T07:53:49;27.50;45.70
34927;DHT22;21132;48.308;14.274;2022-08-14T07:56:16;27.60;45.80
34927;DHT22;21132;48.308;14.274;2022-08-14T07:58:42;27.60;45.20
34927;DHT22;21132;48.308;14.274;2022-08-14T08:01:08;27.60;44.90
34927;DHT22;21132;48.308;14.274;2022-08-14T08:03:37;27.70;45.20
34927;DHT22;21132;48.308;14.274;2022-08-14T08:06:03;27.70;44.80
34927;DHT22;21132;48.308;14.274;2022-08-14T08:08:30;27.70;45.00
34927;DHT22;21132;48.308;14.274;2022-08-14T08:10:56;27.80;44.70
34927;DHT22;21132;48.308;14.274;2022-08-14T08:13:22;27.90;44.50
34927;DHT22;21132;48.308;14.274;2022-08-14T08:15:50;28.00;44.20
34927;DHT22;21132;48.308;14.274;2022-08-14T08:18:19;28.00;44.20
34927;DHT22;21132;48.308;14.274;2022-08-14T08:20:54;28.10;44.10
34927;DHT22;21132;48.308;14.274;2022-08-14T08:23:22;28.10;44.10
34927;DHT22;21132;48.308;14.274;2022-08-14T08:25:49;28.10;44.10
34927;DHT22;21132;48.308;14.274;2022-08-14T08:28:20;28.20;44.00
34927;DHT22;21132;48.308;14.274;2022-08-14T08:30:52;28.20;44.00
34927;DHT22;21132;48.308;14.274;2022-08-14T08:33:20;28.20;44.10
34927;DHT22;21132;48.308;14.274;2022-08-14T08:35:47;28.10;43.80
34927;DHT22;21132;48.308;14.274;2022-08-14T08:38:16;28.10;43.90
34927;DHT22;21132;48.308;14.274;2022-08-14T08:40:47;28.00;43.90
34927;DHT22;21132;48.308;14.274;2022-08-14T08:43:23;28.00;44.30
34927;DHT22;21132;48.308;14.274;2022-08-14T08:46:10;28.00;44.70
34927;DHT22;21132;48.308;14.274;2022-08-14T08:48:44;28.00;44.80
34927;DHT22;21132;48.308;14.274;2022-08-14T08:51:23;28.00;44.60
34927;DHT22;21132;48.308;14.274;2022-08-14T08:54:00;28.00;44.80
34927;DHT22;21132;48.308;14.274;2022-08-14T08:56:47;28.00;44.70
34927;DHT22;21132;48.308;14.274;2022-08-14T09:01:59;28.20;44.80
34927;DHT22;21132;48.308;14.274;2022-08-14T09:04:27;28.40;44.50
34927;DHT22;21132;48.308;14.274;2022-08-14T09:06:54;28.50;44.50
34927;DHT22;21132;48.308;14.274;2022-08-14T09:09:22;28.70;44.20
34927;DHT22;21132;48.308;14.274;2022-08-14T09:11:49;28.90;44.30
34927;DHT22;21132;48.308;14.274;2022-08-14T09:14:15;29.10;44.00
34927;DHT22;21132;48.308;14.274;2022-08-14T09:16:41;29.20;43.40
34927;DHT22;21132;48.308;14.274;2022-08-14T09:19:09;29.30;43.40
34927;DHT22;21132;48.308;14.274;2022-08-14T09:21:38;29.50;43.20
34927;DHT22;21132;48.308;14.274;2022-08-14T09:24:05;29.70;43.00
34927;DHT22;21132;48.308;14.274;2022-08-14T09:26:32;29.80;42.40
34927;DHT22;21132;48.308;14.274;2022-08-14T09:28:58;29.90;42.30
34927;DHT22;21132;48.308;14.274;2022-08-14T09:31:24;30.00;41.90
34927;DHT22;21132;48.308;14.274;2022-08-14T09:34:17;30.00;41.60
34927;DHT22;21132;48.308;14.274;2022-08-14T09:40:12;30.10;41.80
34927;DHT22;21132;48.308;14.274;2022-08-14T09:45:47;30.20;42.10
34927;DHT22;21132;48.308;14.274;2022-08-14T09:48:19;30.20;41.50
34927;DHT22;21132;48.308;14.274;2022-08-14T09:50:52;30.20;41.60
34927;DHT22;21132;48.308;14.274;2022-08-14T09:55:58;30.30;41.90
34927;DHT22;21132;48.308;14.274;2022-08-14T09:58:41;30.20;40.90
34927;DHT22;21132;48.308;14.274;2022-08-14T10:01:19;30.10;40.90
34927;DHT22;21132;48.308;14.274;2022-08-14T10:03:53;30.00;41.00
34927;DHT22;21132;48.308;14.274;2022-08-14T10:06:25;29.90;41.20
34927;DHT22;21132;48.308;14.274;2022-08-14T10:09:04;29.80;41.20
34927;DHT22;21132;48.308;14.274;2022-08-14T10:11:35;29.80;41.50
34927;DHT22;21132;48.308;14.274;2022-08-14T10:14:16;29.70;41.40
34927;DHT22;21132;48.308;14.274;2022-08-14T10:16:44;29.70;41.80
34927;DHT22;21132;48.308;14.274;2022-08-14T10:19:15;29.70;42.00
34927;DHT22;21132;48.308;14.274;2022-08-14T10:21:55;29.70;42.00
34927;DHT22;21132;48.308;14.274;2022-08-14T10:24:29;29.70;42.00
34927;DHT22;21132;48.308;14.274;2022-08-14T10:26:57;29.80;42.10
34927;DHT22;21132;48.308;14.274;2022-08-14T10:29:35;29.80;42.00
34927;DHT22;21132;48.308;14.274;2022-08-14T10:32:03;29.90;42.00
34927;DHT22;21132;48.308;14.274;2022-08-14T10:34:32;29.90;41.80
34927;DHT22;21132;48.308;14.274;2022-08-14T10:37:17;29.90;41.70
34927;DHT22;21132;48.308;14.274;2022-08-14T10:39:56;29.90;41.70
34927;DHT22;21132;48.308;14.274;2022-08-14T10:42:22;29.80;41.40
34927;DHT22;21132;48.308;14.274;2022-08-14T10:44:48;29.80;41.60
34927;DHT22;21132;48.308;14.274;2022-08-14T10:47:16;29.70;41.50
34927;DHT22;21132;48.308;14.274;2022-08-14T10:49:57;29.70;41.60
34927;DHT22;21132;48.308;14.274;2022-08-14T10:52:29;29.60;41.70
34927;DHT22;21132;48.308;14.274;2022-08-14T10:57:33;29.50;42.20
34927;DHT22;21132;48.308;14.274;2022-08-14T11:00:14;29.40;42.40
34927;DHT22;21132;48.308;14.274;2022-08-14T11:02:41;29.40;42.60
34927;DHT22;21132;48.308;14.274;2022-08-14T11:05:12;29.40;42.60
34927;DHT22;21132;48.308;14.274;2022-08-14T11:07:41;29.40;42.70
34927;DHT22;21132;48.308;14.274;2022-08-14T11:10:13;29.40;43.90
34927;DHT22;21132;48.308;14.274;2022-08-14T11:12:45;29.40;44.80
34927;DHT22;21132;48.308;14.274;2022-08-14T11:15:18;29.40;44.70
34927;DHT22;21132;48.308;14.274;2022-08-14T11:17:45;29.30;44.90
34927;DHT22;21132;48.308;14.274;2022-08-14T11:20:13;29.30;45.40
34927;DHT22;21132;48.308;14.274;2022-08-14T11:22:40;29.30;46.30
34927;DHT22;21132;48.308;14.274;2022-08-14T11:25:09;29.30;46.20
34927;DHT22;21132;48.308;14.274;2022-08-14T11:27:37;29.40;46.50
34927;DHT22;21132;48.308;14.274;2022-08-14T11:30:06;29.40;47.00
34927;DHT22;21132;48.308;14.274;2022-08-14T11:32:32;29.40;46.40
34927;DHT22;21132;48.308;14.274;2022-08-14T11:34:59;29.50;46.70
34927;DHT22;21132;48.308;14.274;2022-08-14T11:37:27;29.50;46.50
34927;DHT22;21132;48.308;14.274;2022-08-14T11:39:54;29.50;46.40
34927;DHT22;21132;48.308;14.274;2022-08-14T11:42:25;29.40;46.30
34927;DHT22;21132;48.308;14.274;2022-08-14T11:45:04;29.40;46.30
34927;DHT22;21132;48.308;14.274;2022-08-14T11:47:32;29.30;46.30
34927;DHT22;21132;48.308;14.274;2022-08-14T11:49:58;29.30;46.70
34927;DHT22;21132;48.308;14.274;2022-08-14T11:52:34;29.20;46.90
34927;DHT22;21132;48.308;14.274;2022-08-14T11:55:07;29.20;47.30
34927;DHT22;21132;48.308;14.274;2022-08-14T11:57:33;29.20;47.10
34927;DHT22;21132;48.308;14.274;2022-08-14T12:00:06;29.20;47.20
34927;DHT22;21132;48.308;14.274;2022-08-14T12:02:33;29.30;47.50
34927;DHT22;21132;48.308;14.274;2022-08-14T12:04:59;29.30;46.90
34927;DHT22;21132;48.308;14.274;2022-08-14T12:07:25;29.40;46.80
34927;DHT22;21132;48.308;14.274;2022-08-14T12:09:53;29.50;46.90
34927;DHT22;21132;48.308;14.274;2022-08-14T12:12:22;29.70;47.10
34927;DHT22;21132;48.308;14.274;2022-08-14T12:17:14;30.10;46.40
34927;DHT22;21132;48.308;14.274;2022-08-14T12:19:56;30.40;45.90
34927;DHT22;21132;48.308;14.274;2022-08-14T12:22:43;30.60;45.50
34927;DHT22;21132;48.308;14.274;2022-08-14T12:25:17;31.00;45.40
34927;DHT22;21132;48.308;14.274;2022-08-14T12:27:46;31.20;44.20
34927;DHT22;21132;48.308;14.274;2022-08-14T12:30:31;31.30;43.20
34927;DHT22;21132;48.308;14.274;2022-08-14T12:33:02;31.40;42.50
34927;DHT22;21132;48.308;14.274;2022-08-14T12:35:42;31.50;42.20
34927;DHT22;21132;48.308;14.274;2022-08-14T12:38:10;31.60;42.50
34927;DHT22;21132;48.308;14.274;2022-08-14T12:40:50;31.70;42.50
34927;DHT22;21132;48.308;14.274;2022-08-14T12:43:18;31.90;42.30
34927;DHT22;21132;48.308;14.274;2022-08-14T12:45:51;32.00;41.90
34927;DHT22;21132;48.308;14.274;2022-08-14T12:48:22;32.20;41.30
34927;DHT22;21132;48.308;14.274;2022-08-14T12:50:49;32.30;41.10
34927;DHT22;21132;48.308;14.274;2022-08-14T12:53:19;32.50;40.20
34927;DHT22;21132;48.308;14.274;2022-08-14T12:55:56;32.60;39.50
34927;DHT22;21132;48.308;14.274;2022-08-14T12:58:27;32.70;39.30
34927;DHT22;21132;48.308;14.274;2022-08-14T13:00:54;32.80;38.70
34927;DHT22;21132;48.308;14.274;2022-08-14T13:03:25;32.80;38.60
34927;DHT22;21132;48.308;14.274;2022-08-14T13:05:51;32.70;38.40
34927;DHT22;21132;48.308;14.274;2022-08-14T13:08:17;32.70;38.80
34927;DHT22;21132;48.308;14.274;2022-08-14T13:10:44;32.60;39.00
34927;DHT22;21132;48.308;14.274;2022-08-14T13:13:11;32.60;38.50
34927;DHT22;21132;48.308;14.274;2022-08-14T13:15:40;32.60;38.90
34927;DHT22;21132;48.308;14.274;2022-08-14T13:18:09;32.60;38.40
34927;DHT22;21132;48.308;14.274;2022-08-14T13:20:36;32.60;38.30
34927;DHT22;21132;48.308;14.274;2022-08-14T13:23:06;32.60;37.90
34927;DHT22;21132;48.308;14.274;2022-08-14T13:25:35;32.60;37.60
34927;DHT22;21132;48.308;14.274;2022-08-14T13:28:05;32.70;37.40
34927;DHT22;21132;48.308;14.274;2022-08-14T13:30:34;32.80;36.80
34927;DHT22;21132;48.308;14.274;2022-08-14T13:33:01;32.80;36.80
34927;DHT22;21132;48.308;14.274;2022-08-14T13:35:30;32.90;36.70
34927;DHT22;21132;48.308;14.274;2022-08-14T13:37:55;33.00;36.70
34927;DHT22;21132;48.308;14.274;2022-08-14T13:40:23;33.00;35.80
34927;DHT22;21132;48.308;14.274;2022-08-14T13:42:49;33.00;35.60
34927;DHT22;21132;48.308;14.274;2022-08-14T13:45:18;33.00;35.70
34927;DHT22;21132;48.308;14.274;2022-08-14T13:47:47;33.10;34.70
34927;DHT22;21132;48.308;14.274;2022-08-14T13:50:16;33.10;34.80
34927;DHT22;21132;48.308;14.274;2022-08-14T13:52:48;33.10;34.50
34927;DHT22;21132;48.308;14.274;2022-08-14T13:55:26;33.20;34.90
34927;DHT22;21132;48.308;14.274;2022-08-14T13:57:59;33.20;34.70
34927;DHT22;21132;48.308;14.274;2022-08-14T14:00:25;33.30;33.80
34927;DHT22;21132;48.308;14.274;2022-08-14T14:02:53;33.30;32.60
34927;DHT22;21132;48.308;14.274;2022-08-14T14:05:20;33.50;33.40
34927;DHT22;21132;48.308;14.274;2022-08-14T14:07:52;33.70;33.40
34927;DHT22;21132;48.308;14.274;2022-08-14T14:10:20;34.00;33.50
34927;DHT22;21132;48.308;14.274;2022-08-14T14:12:48;34.30;32.40
34927;DHT22;21132;48.308;14.274;2022-08-14T14:15:17;34.50;32.30
34927;DHT22;21132;48.308;14.274;2022-08-14T14:17:44;34.90;32.70
34927;DHT22;21132;48.308;14.274;2022-08-14T14:20:14;35.20;31.80
34927;DHT22;21132;48.308;14.274;2022-08-14T14:22:45;35.30;30.90
34927;DHT22;21132;48.308;14.274;2022-08-14T14:25:12;35.40;31.30
34927;DHT22;21132;48.308;14.274;2022-08-14T14:27:43;35.50;30.60
34927;DHT22;21132;48.308;14.274;2022-08-14T14:30:13;35.60;30.60
34927;DHT22;21132;48.308;14.274;2022-08-14T14:32:41;35.80;30.60
34927;DHT22;21132;48.308;14.274;2022-08-14T14:35:12;35.90;30.40
34927;DHT22;21132;48.308;14.274;2022-08-14T14:37:42;35.90;30.20
34927;DHT22;21132;48.308;14.274;2022-08-14T14:40:10;36.00;30.00
34927;DHT22;21132;48.308;14.274;2022-08-14T14:42:47;36.20;29.60
34927;DHT22;21132;48.308;14.274;2022-08-14T14:45:15;36.40;30.00
34927;DHT22;21132;48.308;14.274;2022-08-14T14:47:45;36.60;29.40
34927;DHT22;21132;48.308;14.274;2022-08-14T14:50:12;36.70;29.00
34927;DHT22;21132;48.308;14.274;2022-08-14T14:52:39;36.90;28.50
34927;DHT22;21132;48.308;14.274;2022-08-14T14:55:06;37.10;28.90
34927;DHT22;21132;48.308;14.274;2022-08-14T14:57:33;37.40;28.40
34927;DHT22;21132;48.308;14.274;2022-08-14T14:59:59;37.80;28.60
34927;DHT22;21132;48.308;14.274;2022-08-14T15:02:34;38.20;28.40
34927;DHT22;21132;48.308;14.274;2022-08-14T15:05:00;38.80;27.90
34927;DHT22;21132;48.308;14.274;2022-08-14T15:07:27;39.20;27.20
34927;DHT22;21132;48.308;14.274;2022-08-14T15:09:53;39.70;27.00
34927;DHT22;21132;48.308;14.274;2022-08-14T15:12:19;40.00;26.40
34927;DHT22;21132;48.308;14.274;2022-08-14T15:14:45;40.40;25.50
34927;DHT22;21132;48.308;14.274;2022-08-14T15:17:11;40.80;25.40
34927;DHT22;21132;48.308;14.274;2022-08-14T15:19:37;41.20;25.30
34927;DHT22;21132;48.308;14.274;2022-08-14T15:22:03;41.50;24.70
34927;DHT22;21132;48.308;14.274;2022-08-14T15:24:30;41.90;24.10
34927;DHT22;21132;48.308;14.274;2022-08-14T15:26:57;42.40;23.90
34927;DHT22;21132;48.308;14.274;2022-08-14T15:29:22;42.70;23.50
34927;DHT22;21132;48.308;14.274;2022-08-14T15:31:48;43.10;23.30
34927;DHT22;21132;48.308;14.274;2022-08-14T15:34:14;43.50;22.40
34927;DHT22;21132;48.308;14.274;2022-08-14T15:36:42;43.80;22.20
34927;DHT22;21132;48.308;14.274;2022-08-14T15:39:13;44.20;21.60
34927;DHT22;21132;48.308;14.274;2022-08-14T15:41:39;44.50;21.50
34927;DHT22;21132;48.308;14.274;2022-08-14T15:44:05;44.70;20.90
34927;DHT22;21132;48.308;14.274;2022-08-14T15:46:32;45.00;20.90